createdAt,value
2019-06-15T00:01:36.264Z,22.00
2019-06-15T00:04:05.279Z,21.90
2019-06-15T00:06:34.499Z,21.90
2019-06-15T00:09:04.799Z,21.90
2019-06-15T00:11:35.243Z,21.80
2019-06-15T00:14:04.927Z,21.80
2019-06-15T00:16:35.081Z,21.80
2019-06-15T00:19:04.431Z,21.80
2019-06-15T00:21:33.823Z,21.90
2019-06-15T00:24:03.550Z,21.90
2019-06-15T00:26:33.074Z,21.90
2019-06-15T00:29:02.643Z,22.00
2019-06-15T00:31:32.769Z,21.90
2019-06-15T00:34:02.386Z,21.90
2019-06-15T00:36:32.563Z,21.90
2019-06-15T00:39:02.125Z,21.90
2019-06-15T00:41:31.783Z,21.90
2019-06-15T00:44:01.205Z,21.90
2019-06-15T00:46:30.318Z,21.80
2019-06-15T00:49:00.203Z,21.80
2019-06-15T00:51:29.821Z,21.90
2019-06-15T00:53:59.531Z,21.90
2019-06-15T00:56:28.867Z,21.80
2019-06-15T00:58:58.362Z,21.90
2019-06-15T01:01:27.865Z,21.90
2019-06-15T01:03:58.549Z,21.70
2019-06-15T01:06:28.015Z,21.50
2019-06-15T01:08:57.316Z,21.60
2019-06-15T01:11:26.968Z,21.80
2019-06-15T01:13:56.466Z,21.70
2019-06-15T01:16:25.896Z,21.70
2019-06-15T01:18:55.523Z,21.60
2019-06-15T01:21:25.056Z,21.60
2019-06-15T01:23:54.637Z,21.60
2019-06-15T01:26:23.968Z,21.40
2019-06-15T01:28:53.572Z,21.40
2019-06-15T01:31:22.993Z,21.40
2019-06-15T01:33:52.518Z,21.50
2019-06-15T01:36:22.712Z,21.40
2019-06-15T01:38:52.232Z,21.40
2019-06-15T01:41:21.425Z,21.50
2019-06-15T01:43:50.938Z,21.50
2019-06-15T01:46:20.654Z,21.50
2019-06-15T01:48:50.036Z,21.50
2019-06-15T01:51:20.522Z,21.60
2019-06-15T01:53:49.869Z,21.60
2019-06-15T01:56:19.310Z,21.60
2019-06-15T01:58:48.958Z,21.60
2019-06-15T02:01:18.595Z,21.60
2019-06-15T02:03:48.079Z,21.50
2019-06-15T02:06:18.530Z,21.50
2019-06-15T02:08:48.040Z,21.50
2019-06-15T02:11:17.311Z,21.50
2019-06-15T02:13:46.613Z,21.50
2019-06-15T02:16:16.246Z,21.50
2019-06-15T02:18:45.734Z,21.40
2019-06-15T02:21:15.634Z,21.30
2019-06-15T02:23:45.159Z,21.30
2019-06-15T02:26:14.625Z,21.30
2019-06-15T02:28:44.234Z,21.20
2019-06-15T02:31:14.052Z,21.10
2019-06-15T02:33:43.333Z,21.00
2019-06-15T02:36:12.995Z,21.00
2019-06-15T02:38:42.290Z,21.00
2019-06-15T02:41:11.938Z,20.90
2019-06-15T02:43:41.734Z,20.90
2019-06-15T02:46:10.965Z,20.80
2019-06-15T02:48:40.327Z,20.80
2019-06-15T02:51:09.740Z,20.70
2019-06-15T02:53:39.111Z,20.60
2019-06-15T02:56:08.447Z,20.50
2019-06-15T02:58:37.797Z,20.40
2019-06-15T03:01:08.524Z,20.30
2019-06-15T03:03:37.998Z,20.30
2019-06-15T03:06:07.378Z,20.20
2019-06-15T03:08:38.020Z,20.10
2019-06-15T03:11:07.389Z,20.10
2019-06-15T03:13:37.389Z,20.00
2019-06-15T03:16:07.974Z,20.00
2019-06-15T03:18:37.338Z,19.90
2019-06-15T03:21:06.785Z,19.90
2019-06-15T03:23:36.225Z,19.90
2019-06-15T03:26:06.202Z,19.80
2019-06-15T03:28:35.185Z,19.80
2019-06-15T03:31:05.112Z,19.80
2019-06-15T03:33:34.884Z,19.80
2019-06-15T03:36:04.821Z,19.80
2019-06-15T03:38:34.164Z,19.80
2019-06-15T03:41:03.717Z,19.80
2019-06-15T03:43:34.862Z,19.70
2019-06-15T03:46:04.179Z,19.70
2019-06-15T03:48:33.453Z,19.70
2019-06-15T03:51:03.294Z,19.70
2019-06-15T03:53:32.960Z,19.70
2019-06-15T03:56:03.244Z,19.50
2019-06-15T03:58:32.511Z,19.50
2019-06-15T04:01:15.086Z,19.50
2019-06-15T04:03:45.425Z,19.40
2019-06-15T04:06:15.387Z,19.30
2019-06-15T04:08:44.870Z,19.30
2019-06-15T04:11:14.250Z,19.30
2019-06-15T04:13:44.496Z,19.30
2019-06-15T04:16:13.610Z,19.20
2019-06-15T04:18:43.214Z,19.20
2019-06-15T04:21:12.682Z,19.20
2019-06-15T04:23:43.049Z,19.20
2019-06-15T04:26:12.616Z,19.20
2019-06-15T04:28:41.836Z,19.10
2019-06-15T04:31:11.337Z,19.10
2019-06-15T04:33:40.825Z,19.10
2019-06-15T04:36:10.116Z,19.10
2019-06-15T04:38:39.883Z,19.00
2019-06-15T04:41:09.367Z,19.00
2019-06-15T04:43:38.990Z,18.90
2019-06-15T04:46:08.701Z,18.90
2019-06-15T04:48:38.179Z,18.90
2019-06-15T04:51:07.581Z,18.90
2019-06-15T04:53:37.167Z,18.90
2019-06-15T04:56:06.564Z,18.90
2019-06-15T04:58:36.012Z,18.90
2019-06-15T05:01:05.721Z,18.80
2019-06-15T05:03:37.145Z,18.80
2019-06-15T05:06:06.545Z,18.80
2019-06-15T05:08:36.887Z,18.80
2019-06-15T05:11:06.541Z,18.80
2019-06-15T05:13:36.235Z,18.90
2019-06-15T05:16:05.761Z,18.80
2019-06-15T05:18:35.184Z,18.90
2019-06-15T05:21:04.622Z,18.80
2019-06-15T05:23:33.927Z,18.80
2019-06-15T05:26:03.525Z,18.80
2019-06-15T05:28:33.143Z,18.80
2019-06-15T05:31:02.766Z,18.80
2019-06-15T05:33:32.357Z,18.80
2019-06-15T05:36:02.046Z,18.80
2019-06-15T05:38:31.705Z,18.70
2019-06-15T05:41:00.771Z,18.70
2019-06-15T05:43:30.151Z,18.80
2019-06-15T05:45:59.506Z,18.70
2019-06-15T05:48:28.884Z,18.70
2019-06-15T05:50:58.782Z,18.70
2019-06-15T05:53:28.019Z,18.70
2019-06-15T05:55:57.319Z,18.70
2019-06-15T05:58:27.076Z,18.70
2019-06-15T06:00:57.185Z,18.70
2019-06-15T06:03:26.876Z,18.70
2019-06-15T06:05:56.236Z,18.70
2019-06-15T06:08:25.741Z,18.70
2019-06-15T06:10:55.212Z,18.70
2019-06-15T06:13:30.150Z,18.60
2019-06-15T06:15:59.691Z,18.70
2019-06-15T06:18:29.127Z,18.70
2019-06-15T06:20:58.680Z,18.60
2019-06-15T06:23:28.208Z,18.60
2019-06-15T06:25:57.765Z,18.60
2019-06-15T06:28:27.446Z,18.60
2019-06-15T06:30:57.007Z,18.60
2019-06-15T06:33:26.313Z,18.60
2019-06-15T06:35:55.692Z,18.60
2019-06-15T06:38:24.930Z,18.50
2019-06-15T06:40:54.333Z,18.50
2019-06-15T06:43:23.707Z,18.50
2019-06-15T06:45:54.070Z,18.50
2019-06-15T06:48:23.585Z,18.50
2019-06-15T06:50:53.137Z,18.50
2019-06-15T06:53:23.383Z,18.50
2019-06-15T06:55:52.886Z,18.50
2019-06-15T06:58:23.080Z,18.50
2019-06-15T07:00:52.481Z,18.50
2019-06-15T07:03:21.972Z,18.50
2019-06-15T07:05:51.414Z,18.50
2019-06-15T07:08:20.815Z,18.50
2019-06-15T07:10:50.372Z,18.40
2019-06-15T07:13:19.572Z,18.40
2019-06-15T07:15:49.331Z,18.50
2019-06-15T07:18:19.051Z,18.50
2019-06-15T07:20:48.595Z,18.40
2019-06-15T07:23:17.858Z,18.40
2019-06-15T07:25:47.188Z,18.40
2019-06-15T07:28:16.518Z,18.40
2019-06-15T07:30:45.998Z,18.40
2019-06-15T07:33:15.396Z,18.40
2019-06-15T07:35:44.718Z,18.40
2019-06-15T07:38:14.362Z,18.40
2019-06-15T07:40:43.924Z,18.40
2019-06-15T07:43:14.550Z,18.40
2019-06-15T07:45:43.797Z,18.40
2019-06-15T07:48:13.459Z,18.40
2019-06-15T07:50:42.967Z,18.40
2019-06-15T07:53:12.631Z,18.40
2019-06-15T07:55:42.104Z,18.40
2019-06-15T07:58:23.668Z,18.40
2019-06-15T08:00:41.039Z,18.30
2019-06-15T08:03:10.783Z,18.30
2019-06-15T08:05:40.247Z,18.30
2019-06-15T08:08:09.657Z,18.30
2019-06-15T08:10:39.259Z,18.30
2019-06-15T08:13:08.814Z,18.30
2019-06-15T08:15:38.360Z,18.30
2019-06-15T08:18:09.802Z,18.30
2019-06-15T08:20:39.191Z,18.30
2019-06-15T08:23:08.787Z,18.30
2019-06-15T08:25:38.474Z,18.30
2019-06-15T08:28:08.139Z,18.30
2019-06-15T08:30:41.254Z,18.30
2019-06-15T08:33:10.465Z,18.30
2019-06-15T08:35:40.065Z,18.30
2019-06-15T08:38:09.578Z,18.30
2019-06-15T08:40:39.040Z,18.30
2019-06-15T08:43:08.137Z,18.30
2019-06-15T08:45:37.632Z,18.20
2019-06-15T08:48:06.961Z,18.20
2019-06-15T08:50:36.261Z,18.20
2019-06-15T08:53:05.605Z,18.20
2019-06-15T08:55:34.835Z,18.20
2019-06-15T08:58:04.138Z,18.20
2019-06-15T09:00:33.832Z,18.20
2019-06-15T09:03:03.302Z,18.20
2019-06-15T09:05:32.552Z,18.10
2019-06-15T09:08:02.166Z,18.10
2019-06-15T09:10:31.359Z,18.10
2019-06-15T09:13:00.751Z,18.10
2019-06-15T09:15:35.676Z,18.00
2019-06-15T09:18:05.125Z,18.00
2019-06-15T09:20:39.672Z,18.00
2019-06-15T09:23:09.274Z,18.00
2019-06-15T09:25:38.540Z,17.90
2019-06-15T09:28:07.982Z,17.90
2019-06-15T09:30:37.508Z,17.90
2019-06-15T09:33:06.794Z,17.80
2019-06-15T09:35:36.087Z,17.80
2019-06-15T09:38:05.703Z,17.80
2019-06-15T09:40:35.261Z,17.70
2019-06-15T09:43:04.787Z,17.80
2019-06-15T09:45:34.355Z,17.80
2019-06-15T09:48:04.093Z,17.80
2019-06-15T09:50:33.613Z,17.80
2019-06-15T09:53:03.352Z,17.70
2019-06-15T09:55:32.918Z,17.80
2019-06-15T09:58:02.518Z,17.80
2019-06-15T10:00:32.123Z,17.70
2019-06-15T10:03:01.625Z,17.70
2019-06-15T10:05:31.023Z,17.70
2019-06-15T10:08:00.559Z,17.80
2019-06-15T10:10:30.139Z,17.70
2019-06-15T10:12:59.249Z,17.70
2019-06-15T10:15:28.703Z,17.70
2019-06-15T10:17:58.100Z,17.70
2019-06-15T10:20:27.805Z,17.70
2019-06-15T10:22:57.410Z,17.70
2019-06-15T10:25:26.920Z,17.70
2019-06-15T10:27:56.438Z,17.70
2019-06-15T10:30:25.972Z,17.70
2019-06-15T10:32:55.247Z,17.70
2019-06-15T10:35:25.450Z,17.70
2019-06-15T10:37:54.802Z,17.70
2019-06-15T10:40:24.183Z,17.70
2019-06-15T10:42:53.575Z,17.60
2019-06-15T10:45:23.079Z,17.60
2019-06-15T10:47:52.189Z,17.60
2019-06-15T10:50:21.433Z,17.60
2019-06-15T10:52:50.707Z,17.60
2019-06-15T10:55:20.931Z,17.50
2019-06-15T10:57:50.269Z,17.50
2019-06-15T11:00:20.318Z,17.50
2019-06-15T11:02:49.663Z,17.60
2019-06-15T11:05:20.410Z,17.50
2019-06-15T11:07:50.046Z,17.50
2019-06-15T11:13:16.645Z,17.50
2019-06-15T11:15:45.881Z,17.50
2019-06-15T11:18:15.626Z,17.40
2019-06-15T11:20:45.184Z,17.40
2019-06-15T11:23:15.379Z,17.50
2019-06-15T11:25:44.859Z,17.40
2019-06-15T11:28:14.431Z,17.50
2019-06-15T11:30:44.138Z,17.50
2019-06-15T11:33:13.584Z,17.50
2019-06-15T11:35:43.219Z,17.40
2019-06-15T11:38:12.586Z,17.40
2019-06-15T11:40:42.205Z,17.50
2019-06-15T11:43:11.668Z,17.50
2019-06-15T11:45:42.127Z,17.50
2019-06-15T11:48:11.585Z,17.50
2019-06-15T11:50:40.880Z,17.50
2019-06-15T11:53:10.270Z,17.50
2019-06-15T11:55:40.875Z,17.50
2019-06-15T11:58:10.363Z,17.50
2019-06-15T12:00:39.645Z,17.50
2019-06-15T12:03:09.153Z,17.50
2019-06-15T12:05:38.536Z,17.50
2019-06-15T12:08:08.285Z,17.40
2019-06-15T12:10:37.842Z,17.40
2019-06-15T12:13:07.432Z,17.40
2019-06-15T12:15:36.803Z,17.40
2019-06-15T12:18:06.082Z,17.40
2019-06-15T12:20:38.265Z,17.40
2019-06-15T12:23:05.221Z,17.40
2019-06-15T12:25:35.340Z,17.40
2019-06-15T12:28:04.825Z,17.40
2019-06-15T12:30:46.258Z,17.40
2019-06-15T12:33:06.711Z,17.40
2019-06-15T12:35:36.067Z,17.40
2019-06-15T12:38:05.429Z,17.40
2019-06-15T12:40:34.946Z,17.40
2019-06-15T12:43:04.558Z,17.40
2019-06-15T12:45:34.018Z,17.40
2019-06-15T12:48:03.319Z,17.40
2019-06-15T12:50:32.930Z,17.40
2019-06-15T12:53:02.335Z,17.40
2019-06-15T12:55:32.028Z,17.50
2019-06-15T12:58:01.664Z,17.40
2019-06-15T13:00:35.739Z,17.40
2019-06-15T13:03:06.295Z,17.40
2019-06-15T13:05:35.766Z,17.40
2019-06-15T13:08:05.228Z,17.40
2019-06-15T13:10:34.775Z,17.40
2019-06-15T13:13:04.740Z,17.30
2019-06-15T13:15:34.211Z,17.40
2019-06-15T13:18:04.507Z,17.40
2019-06-15T13:20:33.674Z,17.40
2019-06-15T13:23:03.234Z,17.40
2019-06-15T13:25:32.646Z,17.40
2019-06-15T13:28:03.055Z,17.40
2019-06-15T13:30:32.530Z,17.40
2019-06-15T13:33:01.904Z,17.40
2019-06-15T13:35:31.379Z,17.40
2019-06-15T13:38:02.139Z,17.50
2019-06-15T13:40:31.638Z,17.50
2019-06-15T13:43:00.926Z,17.50
2019-06-15T13:45:30.528Z,17.50
2019-06-15T13:47:59.987Z,17.60
2019-06-15T13:50:29.332Z,17.60
2019-06-15T13:52:59.574Z,17.70
2019-06-15T13:55:28.928Z,17.70
2019-06-15T13:57:58.263Z,17.70
2019-06-15T14:00:27.993Z,17.70
2019-06-15T14:02:57.437Z,17.70
2019-06-15T14:05:26.924Z,17.70
2019-06-15T14:07:56.348Z,17.70
2019-06-15T14:10:25.701Z,17.80
2019-06-15T14:12:55.584Z,17.80
2019-06-15T14:15:24.729Z,17.80
2019-06-15T14:17:53.988Z,17.90
2019-06-15T14:20:23.495Z,17.90
2019-06-15T14:22:53.135Z,17.90
2019-06-15T14:25:22.406Z,17.90
2019-06-15T14:27:51.942Z,17.90
2019-06-15T14:30:21.670Z,18.00
2019-06-15T14:32:51.365Z,18.00
2019-06-15T14:35:21.041Z,18.00
2019-06-15T14:37:51.010Z,18.00
2019-06-15T14:40:20.065Z,18.00
2019-06-15T14:42:49.400Z,18.10
2019-06-15T14:45:18.975Z,18.10
2019-06-15T14:47:48.595Z,18.10
2019-06-15T14:50:17.858Z,18.10
2019-06-15T14:52:48.225Z,18.10
2019-06-15T14:55:17.987Z,18.10
2019-06-15T14:57:47.280Z,18.10
2019-06-15T15:00:17.196Z,18.20
2019-06-15T15:02:46.969Z,18.30
2019-06-15T15:05:17.944Z,18.30
2019-06-15T15:07:47.085Z,18.30
2019-06-15T15:10:17.533Z,18.40
2019-06-15T15:12:46.813Z,18.40
2019-06-15T15:15:17.134Z,18.60
2019-06-15T15:17:46.090Z,18.60
2019-06-15T15:20:17.307Z,18.70
2019-06-15T15:22:46.524Z,18.60
2019-06-15T15:25:16.907Z,18.60
2019-06-15T15:27:46.841Z,18.70
2019-06-15T15:30:27.101Z,18.80
2019-06-15T15:32:57.092Z,18.90
2019-06-15T15:35:27.016Z,18.90
2019-06-15T15:37:56.759Z,18.70
2019-06-15T15:40:27.471Z,18.70
2019-06-15T15:43:06.912Z,18.70
2019-06-15T15:45:37.802Z,18.60
2019-06-15T15:48:07.459Z,18.50
2019-06-15T15:50:37.250Z,18.40
2019-06-15T15:53:07.399Z,18.50
2019-06-15T15:55:36.658Z,18.50
2019-06-15T15:58:06.745Z,18.40
2019-06-15T16:00:36.262Z,18.40
2019-06-15T16:03:07.224Z,18.50
2019-06-15T16:05:37.115Z,18.50
2019-06-15T16:08:06.539Z,18.50
2019-06-15T16:10:37.272Z,18.50
2019-06-15T16:13:06.490Z,18.60
2019-06-15T16:15:37.333Z,18.60
2019-06-15T16:18:06.737Z,18.70
2019-06-15T16:20:37.046Z,18.70
2019-06-15T16:23:07.480Z,18.70
2019-06-15T16:25:37.240Z,18.80
2019-06-15T16:28:07.079Z,18.80
2019-06-15T16:30:59.836Z,18.90
2019-06-15T16:33:07.689Z,19.00
2019-06-15T16:35:36.228Z,19.00
2019-06-15T16:38:06.994Z,19.00
2019-06-15T16:40:39.618Z,19.00
2019-06-15T16:43:09.248Z,19.00
2019-06-15T16:45:38.492Z,19.10
2019-06-15T16:48:07.890Z,19.20
2019-06-15T16:50:37.371Z,19.20
2019-06-15T16:53:06.753Z,19.30
2019-06-15T16:55:37.031Z,19.40
2019-06-15T16:58:07.575Z,19.40
2019-06-15T17:00:36.432Z,19.40
2019-06-15T17:03:19.702Z,19.50
2019-06-15T17:05:36.452Z,19.80
2019-06-15T17:08:06.943Z,19.80
2019-06-15T17:10:38.429Z,20.00
2019-06-15T17:13:07.905Z,20.00
2019-06-15T17:15:46.739Z,19.90
2019-06-15T17:18:14.308Z,19.90
2019-06-15T17:20:49.666Z,20.00
2019-06-15T17:23:19.518Z,19.90
2019-06-15T17:25:49.693Z,20.00
2019-06-15T17:28:18.987Z,19.90
2019-06-15T17:30:48.381Z,20.20
2019-06-15T17:33:32.948Z,20.30
2019-06-15T17:35:58.810Z,20.50
2019-06-15T17:38:17.616Z,20.50
2019-06-15T17:40:46.955Z,20.60
2019-06-15T17:43:17.000Z,20.80
2019-06-15T17:45:46.744Z,20.80
2019-06-15T17:48:17.393Z,20.90
2019-06-15T17:50:47.470Z,21.10
2019-06-15T17:53:17.019Z,21.50
2019-06-15T17:55:46.719Z,22.70
2019-06-15T17:58:16.677Z,23.20
2019-06-15T18:00:47.070Z,23.30
2019-06-15T18:03:16.934Z,23.40
2019-06-15T18:05:48.018Z,23.40
2019-06-15T18:08:16.500Z,23.00
2019-06-15T18:10:47.659Z,23.10
2019-06-15T18:13:16.896Z,23.00
2019-06-15T18:15:47.225Z,22.80
2019-06-15T18:18:16.668Z,22.70
2019-06-15T18:20:44.751Z,22.90
2019-06-15T18:23:13.939Z,23.20
2019-06-15T18:25:43.701Z,23.50
2019-06-15T18:28:12.842Z,23.70
2019-06-15T18:30:42.083Z,23.70
2019-06-15T18:33:11.760Z,23.90
2019-06-15T18:35:41.675Z,24.60
2019-06-15T18:38:11.174Z,24.90
2019-06-15T18:40:40.657Z,24.80
2019-06-15T18:43:10.992Z,24.60
2019-06-15T18:45:40.442Z,24.60
2019-06-15T18:48:10.173Z,24.70
2019-06-15T18:50:40.724Z,24.90
2019-06-15T18:53:10.525Z,25.00
2019-06-15T18:55:39.986Z,25.10
2019-06-15T18:58:09.565Z,25.00
2019-06-15T19:00:39.342Z,24.70
2019-06-15T19:03:08.801Z,24.60
2019-06-15T19:05:38.075Z,24.70
2019-06-15T19:08:07.119Z,24.80
2019-06-15T19:10:37.418Z,25.00
2019-06-15T19:13:07.492Z,25.10
2019-06-15T19:15:37.507Z,25.20
2019-06-15T19:18:07.793Z,25.10
2019-06-15T19:20:37.491Z,25.10
2019-06-15T19:23:06.987Z,25.20
2019-06-15T19:25:36.606Z,25.40
2019-06-15T19:28:06.107Z,25.70
2019-06-15T19:30:37.349Z,25.80
2019-06-15T19:33:05.210Z,26.00
2019-06-15T19:35:36.354Z,26.00
2019-06-15T19:38:06.360Z,26.00
2019-06-15T19:40:37.908Z,25.80
2019-06-15T19:43:06.612Z,25.70
2019-06-15T19:45:37.191Z,25.50
2019-06-15T19:48:06.915Z,25.50
2019-06-15T19:50:36.568Z,25.40
2019-06-15T19:53:07.029Z,25.50
2019-06-15T19:55:36.177Z,25.40
2019-06-15T19:58:07.129Z,25.10
2019-06-15T20:00:36.488Z,25.10
2019-06-15T20:03:07.142Z,25.50
2019-06-15T20:05:37.175Z,25.80
2019-06-15T20:08:07.134Z,25.70
2019-06-15T20:10:37.082Z,26.00
2019-06-15T20:13:06.807Z,26.40
2019-06-15T20:15:37.325Z,26.60
2019-06-15T20:18:06.697Z,26.40
2019-06-15T20:20:36.834Z,26.30
2019-06-15T20:23:03.986Z,26.10
2019-06-15T20:25:33.637Z,26.00
2019-06-15T20:28:03.459Z,25.90
2019-06-15T20:30:33.126Z,25.80
2019-06-15T20:33:02.663Z,25.70
2019-06-15T20:35:32.310Z,25.80
2019-06-15T20:38:01.833Z,25.50
2019-06-15T20:40:31.477Z,25.40
2019-06-15T20:43:01.001Z,25.20
2019-06-15T20:45:31.700Z,25.30
2019-06-15T20:48:01.283Z,25.20
2019-06-15T20:50:30.640Z,25.10
2019-06-15T20:53:00.018Z,25.00
2019-06-15T20:55:29.416Z,24.80
2019-06-15T20:57:58.688Z,24.50
2019-06-15T21:00:27.864Z,24.40
2019-06-15T21:02:57.194Z,24.50
2019-06-15T21:05:37.659Z,24.80
2019-06-15T21:07:57.660Z,25.00
2019-06-15T21:10:26.487Z,25.10
2019-06-15T21:12:55.783Z,25.00
2019-06-15T21:15:25.330Z,24.80
2019-06-15T21:17:57.136Z,24.70
2019-06-15T21:20:26.794Z,24.70
2019-06-15T21:22:57.031Z,24.70
2019-06-15T21:25:26.286Z,24.80
2019-06-15T21:27:56.584Z,24.90
2019-06-15T21:30:26.846Z,25.20
2019-06-15T21:32:55.978Z,25.30
2019-06-15T21:35:26.528Z,25.40
2019-06-15T21:37:53.686Z,25.30
2019-06-15T21:40:23.179Z,25.20
2019-06-15T21:42:56.090Z,25.20
2019-06-15T21:45:23.305Z,25.20
2019-06-15T21:47:55.887Z,25.10
2019-06-15T21:50:23.080Z,25.10
2019-06-15T21:52:52.470Z,25.10
2019-06-15T21:55:21.847Z,25.30
2019-06-15T21:57:51.111Z,25.30
2019-06-15T22:00:20.698Z,25.20
2019-06-15T22:02:49.892Z,25.10
2019-06-15T22:05:19.351Z,25.10
2019-06-15T22:07:48.946Z,25.10
2019-06-15T22:10:18.492Z,25.20
2019-06-15T22:12:47.658Z,25.30
2019-06-15T22:15:17.182Z,25.20
2019-06-15T22:17:46.896Z,24.90
2019-06-15T22:20:16.894Z,24.90
2019-06-15T22:22:47.169Z,24.90
2019-06-15T22:25:16.617Z,24.90
2019-06-15T22:27:46.820Z,24.80
2019-06-15T22:30:16.980Z,24.90
2019-06-15T22:32:47.083Z,25.00
2019-06-15T22:35:16.451Z,24.90
2019-06-15T22:37:46.840Z,24.80
2019-06-15T22:40:16.798Z,24.80
2019-06-15T22:42:47.029Z,24.80
2019-06-15T22:45:17.264Z,24.80
2019-06-15T22:47:46.784Z,24.90
2019-06-15T22:50:16.132Z,25.00
2019-06-15T22:52:47.133Z,25.00
2019-06-15T22:55:16.584Z,25.00
2019-06-15T22:57:46.140Z,25.10
2019-06-15T23:00:16.967Z,25.00
2019-06-15T23:02:46.061Z,24.90
2019-06-15T23:05:16.931Z,24.90
2019-06-15T23:07:46.975Z,24.80
2019-06-15T23:10:16.520Z,24.80
2019-06-15T23:12:46.233Z,24.70
2019-06-15T23:15:13.593Z,24.60
2019-06-15T23:17:42.666Z,24.70
2019-06-15T23:20:12.206Z,24.70
2019-06-15T23:22:41.824Z,24.60
2019-06-15T23:25:11.399Z,24.40
2019-06-15T23:27:41.038Z,24.40
2019-06-15T23:30:10.963Z,24.40
2019-06-15T23:32:40.491Z,24.40
2019-06-15T23:35:09.808Z,24.40
2019-06-15T23:37:39.149Z,24.20
2019-06-15T23:40:16.234Z,24.20
2019-06-15T23:42:45.991Z,24.10
2019-06-15T23:45:16.133Z,24.10
2019-06-15T23:47:46.685Z,24.20
2019-06-15T23:50:16.798Z,24.30
2019-06-15T23:52:46.732Z,24.30
2019-06-15T23:55:14.425Z,24.40
2019-06-15T23:57:46.300Z,24.40
